Time;durP1;ratioP1;P1;durP2;ratioP2;P2;SDS_P1;SDS_P2;PMS_P1;PMS_P2;Temp;Humidity;BMP_temperature;BMP_pressure;BME280_temperature;BME280_humidity;BME280_pressure;Samples;Min_cycle;Max_cycle;Signal;HPM_P1;HPM_P2
2022/11/23 00:01:23;;;;;;;7.57;4.50;;;9.70;96.70;;;;;;5065044;28;20056;-69
2022/11/23 00:03:52;;;;;;;6.95;4.20;;;9.70;96.70;;;;;;5045867;28;20658;-69
2022/11/23 00:06:23;;;;;;;5.28;4.00;;;9.50;96.70;;;;;;5063130;28;20037;-69
2022/11/23 00:08:52;;;;;;;5.53;3.67;;;9.40;96.70;;;;;;5061882;28;20063;-69
2022/11/23 00:11:22;;;;;;;5.18;4.18;;;9.50;96.70;;;;;;5064992;28;20041;-69
2022/11/23 00:13:52;;;;;;;7.97;4.20;;;9.50;96.70;;;;;;5060686;28;20405;-69
2022/11/23 00:16:22;;;;;;;5.68;4.80;;;9.60;96.70;;;;;;5062395;28;20040;-69
2022/11/23 00:18:52;;;;;;;6.20;4.65;;;9.60;96.70;;;;;;5063708;28;20048;-69
2022/11/23 00:21:21;;;;;;;6.32;4.57;;;9.70;96.70;;;;;;5056201;28;20502;-69
2022/11/23 00:23:50;;;;;;;5.38;4.18;;;9.70;96.70;;;;;;5061400;28;20155;-69
2022/11/23 00:26:18;;;;;;;6.43;4.20;;;9.70;96.70;;;;;;5064407;28;20052;-69
2022/11/23 00:28:46;;;;;;;8.27;4.10;;;9.70;96.70;;;;;;5062761;28;20036;-69
2022/11/23 00:31:17;;;;;;;5.78;4.10;;;9.70;96.70;;;;;;5061475;28;20494;-69
2022/11/23 00:33:49;;;;;;;5.72;3.80;;;9.70;96.70;;;;;;5061997;28;20064;-69
2022/11/23 00:36:18;;;;;;;4.68;3.70;;;9.70;96.70;;;;;;5062075;28;20140;-69
2022/11/23 00:38:46;;;;;;;5.43;3.67;;;9.70;96.70;;;;;;5061840;28;20052;-69
2022/11/23 00:41:17;;;;;;;5.47;3.75;;;9.70;96.70;;;;;;5061876;28;20048;-68
2022/11/23 00:43:45;;;;;;;5.30;3.60;;;9.70;96.70;;;;;;5062317;28;20037;-69
2022/11/23 00:46:17;;;;;;;4.25;3.55;;;9.60;96.70;;;;;;5060694;28;20332;-69
2022/11/23 00:48:46;;;;;;;4.90;4.00;;;9.50;96.70;;;;;;5063701;28;20098;-69
2022/11/23 00:51:15;;;;;;;5.22;3.80;;;9.50;96.70;;;;;;5062392;28;20045;-69
2022/11/23 00:53:44;;;;;;;4.93;3.80;;;9.50;96.70;;;;;;5062890;28;20083;-69
2022/11/23 00:56:12;;;;;;;4.60;3.60;;;9.50;96.70;;;;;;5060729;28;20036;-69
2022/11/23 00:58:40;;;;;;;3.92;3.38;;;9.60;96.70;;;;;;5061261;28;20041;-69
2022/11/23 01:01:10;;;;;;;4.85;3.72;;;9.60;96.70;;;;;;5044945;28;20576;-70
2022/11/23 01:03:42;;;;;;;4.40;3.83;;;9.60;96.70;;;;;;5063955;28;20048;-70
2022/11/23 01:06:13;;;;;;;5.03;3.83;;;9.50;96.70;;;;;;5062796;28;20079;-69
2022/11/23 01:08:42;;;;;;;3.92;3.33;;;9.50;96.70;;;;;;5057752;28;20059;-70
2022/11/23 01:11:11;;;;;;;8.18;4.20;;;9.50;96.70;;;;;;5062207;28;20052;-70
2022/11/23 01:13:42;;;;;;;5.38;3.83;;;9.50;96.70;;;;;;5063154;28;20046;-70
2022/11/23 01:16:13;;;;;;;4.60;4.00;;;9.50;96.70;;;;;;5061327;28;20044;-70
2022/11/23 01:18:53;;;;;;;6.18;3.95;;;9.50;96.70;;;;;;5063247;28;20110;-70
2022/11/23 01:21:23;;;;;;;5.45;3.83;;;9.50;96.70;;;;;;5077884;28;20079;-70
2022/11/23 01:23:51;;;;;;;6.18;3.78;;;9.40;96.70;;;;;;5062821;28;20562;-70
2022/11/23 01:26:20;;;;;;;5.35;3.53;;;9.40;96.70;;;;;;5061051;28;20060;-70
2022/11/23 01:28:49;;;;;;;5.57;3.83;;;9.40;96.70;;;;;;5061058;28;20947;-70
2022/11/23 01:31:20;;;;;;;4.65;3.60;;;9.30;96.70;;;;;;5060312;28;20042;-70
2022/11/23 01:33:53;;;;;;;4.00;3.50;;;9.40;96.70;;;;;;5060362;28;20566;-69
2022/11/23 01:36:24;;;;;;;6.20;3.92;;;9.40;96.70;;;;;;5059843;28;20553;-70
2022/11/23 01:38:53;;;;;;;4.90;3.88;;;9.40;96.70;;;;;;5060693;28;20250;-70
2022/11/23 01:41:26;;;;;;;5.70;3.55;;;9.40;96.70;;;;;;5061568;28;20040;-69
2022/11/23 01:43:55;;;;;;;4.22;3.83;;;9.40;96.70;;;;;;5041720;28;20139;-70
2022/11/23 01:46:25;;;;;;;5.15;3.78;;;9.40;96.70;;;;;;5060057;28;20047;-70
2022/11/23 01:48:57;;;;;;;4.38;3.60;;;9.40;96.70;;;;;;5061744;28;20530;-70
2022/11/23 01:51:27;;;;;;;5.13;3.67;;;9.30;96.70;;;;;;5061410;28;20048;-70
2022/11/23 01:54:00;;;;;;;4.18;3.53;;;9.30;96.70;;;;;;5062494;28;20690;-70
2022/11/23 01:56:32;;;;;;;5.78;4.35;;;9.30;96.70;;;;;;5060669;28;20056;-70
2022/11/23 01:59:06;;;;;;;4.82;3.75;;;9.30;96.70;;;;;;5061229;28;20455;-70
2022/11/23 02:01:35;;;;;;;5.28;4.00;;;9.20;96.70;;;;;;5040078;28;20060;-69
2022/11/23 02:04:07;;;;;;;8.35;4.50;;;9.20;96.70;;;;;;5057294;28;20040;-69
2022/11/23 02:06:37;;;;;;;5.93;4.13;;;9.20;96.70;;;;;;5060910;28;20122;-70
2022/11/23 02:09:06;;;;;;;6.28;3.80;;;9.20;96.70;;;;;;5053924;28;20048;-69
2022/11/23 02:11:35;;;;;;;5.97;3.63;;;9.20;96.70;;;;;;5061112;28;20048;-70
2022/11/23 02:14:03;;;;;;;4.35;3.90;;;9.10;96.70;;;;;;5059769;28;20486;-70
2022/11/23 02:16:33;;;;;;;4.80;4.00;;;9.10;96.70;;;;;;5060301;28;20102;-70
2022/11/23 02:19:06;;;;;;;4.00;3.60;;;9.10;96.70;;;;;;5061052;28;20047;-70
2022/11/23 02:21:35;;;;;;;7.55;4.03;;;9.00;96.70;;;;;;5053616;28;21508;-69
2022/11/23 02:24:09;;;;;;;3.88;3.25;;;9.00;96.70;;;;;;5058694;28;20044;-69
2022/11/23 02:26:39;;;;;;;5.45;3.67;;;9.10;96.70;;;;;;5060223;28;20090;-70
2022/11/23 02:29:13;;;;;;;5.97;3.83;;;9.10;96.70;;;;;;5061438;28;20037;-70
2022/11/23 02:31:41;;;;;;;13.27;4.38;;;9.10;96.70;;;;;;5059522;28;20577;-69
2022/11/23 02:34:10;;;;;;;6.47;4.22;;;9.00;96.70;;;;;;5062068;28;20486;-70
2022/11/23 02:36:41;;;;;;;6.63;3.72;;;9.00;96.70;;;;;;5060034;28;20044;-70
2022/11/23 02:39:12;;;;;;;24.65;4.15;;;9.00;96.70;;;;;;5062118;28;20052;-70
2022/11/23 02:41:44;;;;;;;9.48;3.97;;;9.00;96.70;;;;;;5061142;28;20170;-70
2022/11/23 02:44:31;;;;;;;6.82;3.67;;;8.90;96.70;;;;;;5060498;28;20055;-70
2022/11/23 02:47:00;;;;;;;11.10;3.55;;;8.90;96.70;;;;;;5060871;28;20045;-70
2022/11/23 02:49:28;;;;;;;5.47;3.33;;;8.90;96.70;;;;;;5060916;28;20036;-69
2022/11/23 02:51:58;;;;;;;7.00;3.05;;;8.90;96.70;;;;;;5059766;28;20442;-69
2022/11/23 02:54:26;;;;;;;3.53;3.00;;;8.80;96.70;;;;;;5061712;28;20037;-70
2022/11/23 02:56:58;;;;;;;3.45;2.92;;;8.80;96.70;;;;;;5061064;28;20135;-69
2022/11/23 02:59:29;;;;;;;10.38;3.47;;;8.90;96.70;;;;;;5044022;28;20064;-69
2022/11/23 03:01:58;;;;;;;4.03;3.28;;;8.90;96.70;;;;;;5059547;28;20462;-70
2022/11/23 03:04:29;;;;;;;6.60;2.75;;;8.80;96.70;;;;;;5061425;28;20130;-70
2022/11/23 03:06:58;;;;;;;8.10;2.92;;;8.90;96.70;;;;;;5060689;28;20068;-69
2022/11/23 03:09:28;;;;;;;5.90;2.55;;;8.80;96.70;;;;;;5043269;28;20048;-70
2022/11/23 03:11:59;;;;;;;4.13;2.83;;;8.80;96.70;;;;;;5059488;28;20049;-69
2022/11/23 03:14:28;;;;;;;3.63;2.53;;;8.70;96.70;;;;;;5063422;28;20051;-70
2022/11/23 03:16:58;;;;;;;7.78;2.60;;;8.70;96.70;;;;;;5063656;28;20032;-70
2022/11/23 03:19:30;;;;;;;4.18;2.40;;;8.70;96.70;;;;;;5047527;28;20125;-70
2022/11/23 03:21:59;;;;;;;4.20;2.67;;;8.70;96.70;;;;;;5063846;28;20059;-70
2022/11/23 03:24:31;;;;;;;3.92;2.58;;;8.70;96.70;;;;;;5046752;28;20048;-70
2022/11/23 03:27:04;;;;;;;3.10;2.33;;;8.70;96.70;;;;;;5063459;28;20569;-70
2022/11/23 03:29:33;;;;;;;5.45;2.53;;;8.70;96.70;;;;;;5062475;28;20127;-69
2022/11/23 03:32:09;;;;;;;2.72;2.20;;;8.70;96.70;;;;;;5063509;28;20114;-70
2022/11/23 03:34:39;;;;;;;2.88;2.20;;;8.70;96.70;;;;;;5047013;28;20056;-70
2022/11/23 03:37:08;;;;;;;3.08;2.30;;;8.70;96.70;;;;;;5063595;28;20681;-69
2022/11/23 03:39:37;;;;;;;5.65;2.10;;;8.70;96.70;;;;;;5062305;28;20201;-69
2022/11/23 03:42:34;;;;;;;12.50;2.63;;;8.60;96.70;;;;;;5065170;28;20044;-69
2022/11/23 03:45:03;;;;;;;15.05;2.50;;;8.60;96.70;;;;;;5062516;28;20095;-69
2022/11/23 03:47:32;;;;;;;14.07;2.63;;;8.50;96.70;;;;;;5062568;28;20036;-69
2022/11/23 03:50:00;;;;;;;20.25;2.67;;;8.50;96.70;;;;;;5062103;28;20048;-69
2022/11/23 03:52:31;;;;;;;12.63;2.42;;;8.40;96.70;;;;;;5047799;28;20052;-69
2022/11/23 03:55:01;;;;;;;7.32;2.28;;;8.40;96.70;;;;;;5046673;28;20399;-69
2022/11/23 03:57:33;;;;;;;6.43;1.70;;;8.40;96.70;;;;;;5063639;28;20144;-69
2022/11/23 04:00:05;;;;;;;3.15;2.08;;;8.40;96.70;;;;;;5062368;28;20074;-69
2022/11/23 04:02:39;;;;;;;;;;;8.40;96.70;;;;;;5064419;28;20086;-69
2022/11/23 04:05:28;;;;;;;5.40;2.05;;;8.40;96.70;;;;;;5076764;28;20014;-69
2022/11/23 04:08:14;;;;;;;2.80;2.08;;;8.40;96.70;;;;;;5055772;28;20121;-69
2022/11/23 04:10:43;;;;;;;5.78;1.77;;;8.40;96.70;;;;;;5063819;28;20053;-69
2022/11/23 04:13:23;;;;;;;2.30;1.85;;;8.40;96.70;;;;;;5062143;28;20045;-69
2022/11/23 04:15:51;;;;;;;2.05;1.55;;;8.40;96.70;;;;;;5064351;28;20468;-69
2022/11/23 04:18:20;;;;;;;2.88;1.75;;;8.40;96.70;;;;;;5055466;28;20107;-69
2022/11/23 04:20:49;;;;;;;3.53;2.10;;;8.40;96.70;;;;;;5063123;28;20059;-69
2022/11/23 04:23:18;;;;;;;1.90;1.40;;;8.40;96.70;;;;;;5061661;28;20048;-69
2022/11/23 04:25:49;;;;;;;2.17;1.75;;;8.40;96.70;;;;;;5060010;28;20041;-69
2022/11/23 04:28:19;;;;;;;3.90;1.88;;;8.20;96.70;;;;;;5045030;28;20040;-69
2022/11/23 04:30:50;;;;;;;2.70;1.80;;;8.30;96.70;;;;;;5062770;28;20067;-68
2022/11/23 04:33:19;;;;;;;5.07;2.00;;;8.30;96.70;;;;;;5062935;28;20525;-69
2022/11/23 04:35:48;;;;;;;2.47;1.70;;;8.20;96.70;;;;;;5064185;28;20049;-69
2022/11/23 04:38:16;;;;;;;3.10;2.17;;;8.20;96.70;;;;;;5062967;28;20044;-69
2022/11/23 04:40:48;;;;;;;3.25;2.30;;;8.20;96.70;;;;;;5045840;28;20044;-68
2022/11/23 04:43:16;;;;;;;2.42;2.10;;;8.10;96.70;;;;;;5061310;28;20070;-69
2022/11/23 04:45:49;;;;;;;5.97;2.35;;;8.20;96.70;;;;;;5062195;28;20040;-69
2022/11/23 04:48:24;;;;;;;5.05;2.45;;;8.10;96.70;;;;;;5046710;28;20413;-69
2022/11/23 04:50:55;;;;;;;7.78;2.63;;;8.10;96.70;;;;;;5061613;28;20505;-69
2022/11/23 04:53:31;;;;;;;4.03;2.60;;;8.10;96.70;;;;;;5060763;28;20156;-68
2022/11/23 04:56:00;;;;;;;4.70;2.63;;;7.90;96.70;;;;;;5061443;28;20049;-68
2022/11/23 04:58:35;;;;;;;4.32;2.50;;;7.90;96.70;;;;;;5046225;28;20391;-69
2022/11/23 05:01:06;;;;;;;3.15;2.03;;;7.90;96.70;;;;;;5062280;28;20074;-69
2022/11/23 05:03:43;;;;;;;4.20;2.20;;;8.00;96.70;;;;;;5061088;28;20467;-69
2022/11/23 05:06:12;;;;;;;6.15;1.95;;;8.00;96.70;;;;;;5061394;28;20085;-69
2022/11/23 05:08:42;;;;;;;7.32;2.50;;;8.00;96.70;;;;;;5060968;28;20139;-69
2022/11/23 05:11:39;;;;;;;6.57;2.58;;;7.90;96.70;;;;;;5061141;28;20048;-69
2022/11/23 05:14:09;;;;;;;14.55;2.42;;;7.80;96.70;;;;;;5044800;28;20074;-69
2022/11/23 05:16:40;;;;;;;8.63;2.70;;;7.80;96.70;;;;;;5044596;28;20048;-69
2022/11/23 05:19:09;;;;;;;14.52;2.53;;;7.80;96.70;;;;;;5061561;28;20779;-69
2022/11/23 05:21:38;;;;;;;8.10;2.88;;;7.70;96.70;;;;;;5060172;28;20052;-69
2022/11/23 05:24:07;;;;;;;11.18;2.80;;;7.70;96.70;;;;;;5060941;28;20048;-69
2022/11/23 05:26:40;;;;;;;6.90;2.03;;;7.60;96.70;;;;;;5060720;28;20048;-69
2022/11/23 05:29:09;;;;;;;3.83;1.88;;;7.70;96.70;;;;;;5061459;28;20056;-69
2022/11/23 05:31:37;;;;;;;12.15;2.53;;;7.60;96.70;;;;;;5061361;28;20485;-69
2022/11/23 05:34:07;;;;;;;4.95;2.17;;;7.60;96.70;;;;;;5059936;28;20052;-69
2022/11/23 05:36:44;;;;;;;3.80;1.88;;;7.70;96.70;;;;;;5058957;28;20044;-69
2022/11/23 05:39:13;;;;;;;2.70;1.88;;;7.70;96.70;;;;;;5060192;28;20045;-69
2022/11/23 05:41:41;;;;;;;2.80;1.90;;;7.60;96.70;;;;;;5061071;28;20064;-69
2022/11/23 05:44:23;;;;;;;3.90;2.10;;;7.60;96.70;;;;;;5060275;28;20048;-69
2022/11/23 05:46:52;;;;;;;6.65;2.17;;;7.70;96.70;;;;;;5060881;28;20044;-69
2022/11/23 05:49:22;;;;;;;3.15;1.75;;;7.60;96.70;;;;;;5060239;28;20041;-69
2022/11/23 05:51:51;;;;;;;4.88;1.75;;;7.50;96.70;;;;;;5063281;28;20413;-68
2022/11/23 05:54:20;;;;;;;3.75;2.58;;;7.50;96.70;;;;;;5040963;28;20064;-71
2022/11/23 05:57:05;;;;;;;3.67;2.55;;;7.50;96.70;;;;;;5054253;28;20059;-68
2022/11/23 05:59:39;;;;;;;3.72;2.67;;;7.50;96.70;;;;;;5057869;28;20643;-69
2022/11/23 06:02:12;;;;;;;5.75;2.78;;;7.50;96.70;;;;;;5060533;28;20067;-69
2022/11/23 06:04:42;;;;;;;5.13;3.00;;;7.40;96.70;;;;;;5058361;28;20528;-68
2022/11/23 06:07:15;;;;;;;4.57;3.28;;;7.40;96.70;;;;;;5059846;28;20139;-69
2022/11/23 06:10:07;;;;;;;4.25;2.95;;;7.30;96.70;;;;;;5043584;28;20049;-69
2022/11/23 06:12:39;;;;;;;3.55;2.63;;;7.30;96.70;;;;;;5042292;28;20041;-69
2022/11/23 06:15:13;;;;;;;4.15;3.13;;;7.40;96.70;;;;;;5044638;28;20049;-69
2022/11/23 06:17:41;;;;;;;3.67;3.05;;;7.40;96.70;;;;;;5043030;28;20052;-69
2022/11/23 06:20:16;;;;;;;4.30;2.95;;;7.40;96.70;;;;;;5061118;28;20072;-69
2022/11/23 06:22:54;;;;;;;5.50;2.85;;;7.40;96.70;;;;;;5060060;28;20044;-69
2022/11/23 06:25:24;;;;;;;3.58;2.25;;;7.20;96.70;;;;;;5060706;28;20087;-69
2022/11/23 06:28:05;;;;;;;4.97;2.40;;;6.80;96.70;;;;;;5044977;28;20041;-69
2022/11/23 06:30:43;;;;;;;4.55;2.75;;;6.60;96.70;;;;;;5060619;28;20044;-69
2022/11/23 06:33:12;;;;;;;4.38;2.78;;;6.80;96.70;;;;;;5059278;28;20048;-69
2022/11/23 06:35:53;;;;;;;4.65;3.28;;;7.00;96.70;;;;;;5060114;28;20127;-68
2022/11/23 06:38:23;;;;;;;4.03;2.67;;;7.10;96.70;;;;;;5055272;28;20049;-68
2022/11/23 06:41:01;;;;;;;4.95;3.03;;;7.20;96.70;;;;;;5044798;28;20139;-68
2022/11/23 06:43:30;;;;;;;7.28;4.18;;;7.30;96.70;;;;;;5058036;28;20052;-69
2022/11/23 06:46:04;;;;;;;7.55;4.07;;;7.20;96.70;;;;;;5043891;28;20135;-68
2022/11/23 06:48:36;;;;;;;21.63;4.35;;;7.00;96.70;;;;;;5061720;28;20060;-70
2022/11/23 06:51:08;;;;;;;18.08;3.95;;;6.90;96.70;;;;;;5048190;28;20075;-69
2022/11/23 06:53:37;;;;;;;58.85;4.75;;;6.70;96.70;;;;;;5047373;28;20052;-69
2022/11/23 06:56:07;;;;;;;15.35;3.33;;;6.60;96.70;;;;;;5063725;28;20074;-69
2022/11/23 06:58:35;;;;;;;6.72;3.60;;;6.70;96.70;;;;;;5063675;28;20044;-69
2022/11/23 07:01:09;;;;;;;5.60;3.20;;;7.00;96.70;;;;;;5063650;28;20044;-69
2022/11/23 07:03:51;;;;;;;5.68;3.35;;;7.40;96.70;;;;;;5063905;28;20051;-70
2022/11/23 07:06:27;;;;;;;9.73;4.35;;;7.50;96.70;;;;;;5063487;28;20044;-70
2022/11/23 07:08:59;;;;;;;8.90;4.50;;;7.60;96.70;;;;;;5060752;28;20076;-69
2022/11/23 07:11:46;;;;;;;12.82;5.45;;;7.60;96.70;;;;;;5063464;28;20032;-68
2022/11/23 07:14:15;;;;;;;13.27;5.65;;;7.60;96.70;;;;;;5064864;28;20040;-69
2022/11/23 07:16:47;;;;;;;10.18;4.10;;;7.50;96.70;;;;;;5063377;28;20041;-69
2022/11/23 07:19:15;;;;;;;11.75;3.70;;;7.40;96.70;;;;;;5047505;28;20150;-70
2022/11/23 07:21:46;;;;;;;11.40;4.20;;;7.40;96.70;;;;;;5046836;28;20135;-70
2022/11/23 07:24:15;;;;;;;21.55;5.45;;;7.40;96.70;;;;;;5062997;28;20103;-69
2022/11/23 07:26:44;;;;;;;5.00;3.58;;;7.50;96.70;;;;;;5062804;28;20045;-69
2022/11/23 07:29:13;;;;;;;13.70;5.07;;;7.60;96.70;;;;;;5063936;28;20604;-70
2022/11/23 07:31:41;;;;;;;7.80;4.07;;;7.70;96.70;;;;;;5063105;28;20056;-69
2022/11/23 07:34:10;;;;;;;11.82;4.03;;;7.80;96.70;;;;;;5062692;28;20082;-69
2022/11/23 07:36:38;;;;;;;5.22;3.90;;;7.80;96.70;;;;;;5062908;28;20036;-69
2022/11/23 07:39:08;;;;;;;6.13;4.10;;;7.90;96.70;;;;;;5062645;28;20056;-69
2022/11/23 07:41:37;;;;;;;9.77;4.25;;;8.00;96.70;;;;;;5063264;28;20546;-69
2022/11/23 07:44:27;;;;;;;11.82;4.70;;;8.10;96.70;;;;;;5063434;28;20135;-69
2022/11/23 07:46:56;;;;;;;7.93;4.63;;;8.10;96.70;;;;;;5063061;28;20055;-70
2022/11/23 07:49:24;;;;;;;8.27;4.80;;;8.10;96.70;;;;;;5046317;28;20602;-70
2022/11/23 07:51:53;;;;;;;9.05;4.55;;;8.20;96.70;;;;;;5065174;28;20068;-70
2022/11/23 07:54:22;;;;;;;11.15;5.20;;;8.20;96.70;;;;;;5063423;28;20075;-69
2022/11/23 07:56:51;;;;;;;8.20;5.03;;;8.30;96.70;;;;;;5063574;28;20068;-69
2022/11/23 07:59:19;;;;;;;12.43;5.95;;;8.30;96.70;;;;;;5061370;28;20109;-70
2022/11/23 08:01:48;;;;;;;7.50;5.07;;;8.30;96.70;;;;;;5063213;28;20071;-70
2022/11/23 08:04:22;;;;;;;6.30;4.97;;;8.30;96.70;;;;;;5062257;28;20106;-69
2022/11/23 08:06:51;;;;;;;8.88;6.25;;;8.40;96.70;;;;;;5064659;28;20094;-69
2022/11/23 08:09:19;;;;;;;8.43;6.47;;;8.50;96.70;;;;;;5061723;28;20059;-69
2022/11/23 08:11:49;;;;;;;10.65;6.65;;;8.50;96.70;;;;;;5064830;28;20477;-70
2022/11/23 08:14:18;;;;;;;8.02;5.90;;;8.50;96.70;;;;;;5063720;28;20629;-70
2022/11/23 08:16:49;;;;;;;11.45;6.68;;;8.50;96.70;;;;;;5064272;28;20072;-69
2022/11/23 08:19:17;;;;;;;9.85;6.03;;;8.50;96.70;;;;;;5063463;28;20071;-70
2022/11/23 08:21:45;;;;;;;9.35;5.88;;;8.50;96.70;;;;;;5064853;28;20071;-70
2022/11/23 08:24:14;;;;;;;14.50;7.20;;;8.60;96.70;;;;;;5060406;28;20305;-70
2022/11/23 08:26:42;;;;;;;10.95;6.85;;;8.60;96.70;;;;;;5062808;28;20051;-70
2022/11/23 08:29:12;;;;;;;11.93;8.02;;;8.60;96.70;;;;;;5063812;28;20041;-70
2022/11/23 08:31:40;;;;;;;12.85;8.32;;;8.70;96.70;;;;;;5064059;28;20044;-69
2022/11/23 08:34:08;;;;;;;11.80;8.05;;;8.80;96.70;;;;;;5062902;28;20040;-70
2022/11/23 08:36:37;;;;;;;13.82;9.25;;;8.80;96.70;;;;;;5062002;28;20045;-70
2022/11/23 08:39:06;;;;;;;9.68;7.63;;;8.80;96.70;;;;;;5063725;28;20048;-69
2022/11/23 08:41:34;;;;;;;11.32;8.63;;;8.80;96.70;;;;;;5063411;28;20514;-70
2022/11/23 08:44:02;;;;;;;12.50;9.40;;;9.00;96.70;;;;;;5063573;28;20578;-70
2022/11/23 08:46:32;;;;;;;12.48;9.07;;;9.00;96.70;;;;;;5062863;28;20055;-69
2022/11/23 08:49:00;;;;;;;10.45;8.57;;;9.00;96.70;;;;;;5062094;28;20045;-69
2022/11/23 08:51:29;;;;;;;11.35;8.65;;;9.00;96.70;;;;;;5062980;28;20090;-70
2022/11/23 08:53:57;;;;;;;10.60;8.32;;;9.10;96.70;;;;;;5062043;28;20075;-70
2022/11/23 08:56:25;;;;;;;8.55;7.40;;;9.20;96.70;;;;;;5061430;28;20131;-70
2022/11/23 08:58:53;;;;;;;12.25;8.55;;;9.40;96.70;;;;;;5063764;28;20418;-70
2022/11/23 09:01:22;;;;;;;9.70;7.15;;;9.50;96.70;;;;;;5060826;28;20040;-70
2022/11/23 09:03:53;;;;;;;8.52;7.10;;;9.60;96.70;;;;;;5061574;28;20048;-69
2022/11/23 09:06:27;;;;;;;7.97;6.50;;;9.70;96.70;;;;;;5054914;28;20114;-70
2022/11/23 09:08:56;;;;;;;9.80;7.15;;;9.70;96.70;;;;;;5062587;28;20048;-70
2022/11/23 09:11:25;;;;;;;8.40;6.85;;;9.70;96.70;;;;;;5062694;28;20086;-70
2022/11/23 09:13:53;;;;;;;7.85;6.50;;;9.70;96.70;;;;;;5044942;28;20141;-70
2022/11/23 09:16:23;;;;;;;6.70;5.20;;;9.80;96.70;;;;;;5059782;28;20072;-70
2022/11/23 09:18:58;;;;;;;6.63;5.68;;;9.90;96.70;;;;;;5062013;28;20102;-71
2022/11/23 09:21:29;;;;;;;7.88;5.63;;;10.10;96.70;;;;;;5060971;28;20119;-70
2022/11/23 09:23:57;;;;;;;5.50;4.78;;;10.20;96.70;;;;;;5061328;28;20047;-70
2022/11/23 09:26:26;;;;;;;5.82;5.22;;;10.30;96.70;;;;;;5060673;28;20044;-70
2022/11/23 09:28:54;;;;;;;7.28;5.40;;;10.40;96.70;;;;;;5062488;28;20049;-71
2022/11/23 09:31:27;;;;;;;6.00;5.07;;;10.30;96.70;;;;;;5060455;28;20144;-70
2022/11/23 09:33:57;;;;;;;7.05;5.40;;;10.40;96.70;;;;;;5062858;28;20048;-71
2022/11/23 09:36:25;;;;;;;6.50;5.07;;;10.40;96.70;;;;;;5062361;28;20043;-70
2022/11/23 09:38:54;;;;;;;5.78;5.18;;;10.60;96.70;;;;;;5059712;28;20040;-70
2022/11/23 09:41:51;;;;;;;6.80;5.28;;;10.60;96.70;;;;;;5062054;28;20041;-71
2022/11/23 09:44:28;;;;;;;7.20;5.18;;;10.70;96.70;;;;;;5058321;28;20406;-70
2022/11/23 09:47:13;;;;;;;5.55;4.80;;;10.70;96.70;;;;;;5060172;28;20118;-70
2022/11/23 09:49:52;;;;;;;5.75;4.78;;;10.70;96.70;;;;;;5061429;28;20051;-70
2022/11/23 09:52:23;;;;;;;6.07;4.93;;;10.80;96.70;;;;;;5059050;28;20143;-70
2022/11/23 09:54:54;;;;;;;5.18;4.40;;;10.90;96.70;;;;;;5061343;28;20045;-70
2022/11/23 09:57:26;;;;;;;5.82;4.30;;;11.00;96.70;;;;;;5055633;28;20435;-71
2022/11/23 09:59:59;;;;;;;6.30;4.45;;;11.20;96.70;;;;;;5056258;28;20040;-70
2022/11/23 10:02:28;;;;;;;6.10;4.70;;;11.20;96.70;;;;;;5058582;28;20509;-70
2022/11/23 10:05:00;;;;;;;7.15;4.55;;;11.30;96.70;;;;;;5061336;28;20043;-71
2022/11/23 10:07:40;;;;;;;5.07;4.07;;;11.40;96.70;;;;;;5062289;28;20044;-71
2022/11/23 10:10:21;;;;;;;6.15;3.80;;;11.50;96.70;;;;;;5058209;28;20048;-71
2022/11/23 10:12:58;;;;;;;3.67;3.20;;;11.60;96.70;;;;;;5060214;28;20048;-71
2022/11/23 10:15:32;;;;;;;4.80;3.15;;;11.60;96.70;;;;;;5062007;28;20036;-71
2022/11/23 10:18:29;;;;;;;4.72;2.95;;;11.60;96.70;;;;;;5060974;28;20048;-71
2022/11/23 10:21:08;;;;;;;5.33;2.77;;;11.70;96.70;;;;;;5059057;28;20146;-71
2022/11/23 10:23:52;;;;;;;4.10;2.70;;;11.80;96.70;;;;;;5058649;28;20462;-71
2022/11/23 10:26:25;;;;;;;2.65;2.20;;;11.80;96.70;;;;;;5062388;28;20047;-71
2022/11/23 10:28:54;;;;;;;2.20;2.00;;;11.90;96.70;;;;;;5060097;28;20048;-71
2022/11/23 10:31:24;;;;;;;3.33;2.35;;;11.90;96.70;;;;;;5060689;28;20040;-71
2022/11/23 10:34:03;;;;;;;2.58;2.17;;;12.00;96.70;;;;;;5060604;28;20040;-71
2022/11/23 10:36:35;;;;;;;2.20;1.92;;;12.10;96.70;;;;;;5062172;28;20491;-71
2022/11/23 10:39:18;;;;;;;2.53;2.33;;;12.10;96.70;;;;;;5060753;28;20048;-71
2022/11/23 10:41:47;;;;;;;4.65;2.97;;;12.20;96.70;;;;;;5061171;28;20044;-71
2022/11/23 10:44:27;;;;;;;8.15;4.22;;;12.30;96.70;;;;;;5061623;28;20033;-71
2022/11/23 10:46:56;;;;;;;6.10;4.22;;;12.30;96.70;;;;;;5060666;28;20047;-71
2022/11/23 10:49:26;;;;;;;6.60;3.95;;;12.40;96.70;;;;;;5060375;28;20037;-71
2022/11/23 10:51:58;;;;;;;4.22;3.80;;;12.50;96.70;;;;;;5061383;28;20563;-70
2022/11/23 10:54:32;;;;;;;8.18;4.40;;;12.70;96.70;;;;;;5060272;28;20146;-71
2022/11/23 10:57:20;;;;;;;4.22;3.28;;;12.70;96.70;;;;;;5043420;28;20871;-71
2022/11/23 10:59:58;;;;;;;3.42;3.13;;;12.80;96.70;;;;;;5061781;28;20040;-71
2022/11/23 11:02:27;;;;;;;3.90;3.50;;;12.80;96.70;;;;;;5060282;28;20449;-71
2022/11/23 11:05:24;;;;;;;4.55;3.85;;;12.90;96.70;;;;;;5060125;28;20090;-71
2022/11/23 11:08:17;;;;;;;5.07;4.07;;;13.00;96.70;;;;;;5061285;28;20057;-71
2022/11/23 11:10:48;;;;;;;6.13;5.13;;;13.10;96.70;;;;;;5058939;28;20057;-71
2022/11/23 11:13:28;;;;;;;7.72;4.43;;;13.20;96.70;;;;;;5060546;28;20036;-70
2022/11/23 11:15:59;;;;;;;5.30;4.80;;;13.30;96.70;;;;;;5059314;28;20523;-71
2022/11/23 11:18:30;;;;;;;5.55;4.60;;;13.50;96.70;;;;;;5060838;28;20520;-71
2022/11/23 11:21:02;;;;;;;5.82;4.50;;;13.60;96.70;;;;;;5061236;28;20079;-71
2022/11/23 11:23:33;;;;;;;4.00;3.45;;;13.70;96.70;;;;;;5061132;28;20048;-71
2022/11/23 11:26:05;;;;;;;3.85;3.45;;;13.80;96.70;;;;;;5060792;28;20044;-71
2022/11/23 11:28:36;;;;;;;4.78;3.75;;;13.90;96.70;;;;;;5060359;28;20556;-71
2022/11/23 11:31:40;;;;;;;3.80;2.65;;;13.90;96.70;;;;;;5060367;28;20589;-71
2022/11/23 11:34:16;;;;;;;3.60;1.73;;;14.00;96.70;;;;;;5061314;28;20045;-71
2022/11/23 11:36:51;;;;;;;2.20;1.55;;;14.10;96.70;;;;;;5064579;28;20048;-71
2022/11/23 11:39:27;;;;;;;1.85;1.42;;;14.20;96.70;;;;;;5056482;28;20048;-71
2022/11/23 11:42:00;;;;;;;1.73;1.27;;;14.30;96.70;;;;;;5064720;28;20626;-71
2022/11/23 11:44:35;;;;;;;3.22;1.70;;;14.30;96.70;;;;;;5062795;28;20234;-71
2022/11/23 11:47:12;;;;;;;2.20;1.50;;;14.30;96.70;;;;;;5065057;28;20049;-71
2022/11/23 11:49:43;;;;;;;;;;;14.50;96.70;;;;;;5038759;28;20121;-71
2022/11/23 11:52:17;;;;;;;13.38;2.10;;;14.60;96.70;;;;;;5063534;28;19995;-71
2022/11/23 11:54:52;;;;;;;1.58;1.08;;;14.70;96.70;;;;;;5062734;28;20064;-71
2022/11/23 11:57:24;;;;;;;1.45;1.08;;;14.80;96.70;;;;;;5063892;28;20102;-71
2022/11/23 11:59:56;;;;;;;3.10;1.63;;;14.90;96.70;;;;;;5057453;28;20086;-71
2022/11/23 12:02:27;;;;;;;2.70;2.05;;;14.90;96.70;;;;;;5062506;28;20037;-71
2022/11/23 12:05:09;;;;;;;3.08;2.35;;;15.00;96.70;;;;;;5059575;28;20044;-72
2022/11/23 12:07:43;;;;;;;2.83;1.85;;;15.20;96.70;;;;;;5063866;28;20494;-71
2022/11/23 12:10:17;;;;;;;1.85;1.52;;;15.30;96.70;;;;;;5062236;28;20847;-71
2022/11/23 12:12:47;;;;;;;2.15;1.10;;;15.40;96.70;;;;;;5063410;28;20040;-71
2022/11/23 12:15:18;;;;;;;1.77;1.05;;;15.40;96.70;;;;;;5063134;28;20039;-72
2022/11/23 12:18:37;;;;;;;2.13;1.10;;;15.40;96.70;;;;;;5060434;28;20319;-71
2022/11/23 12:21:17;;;;;;;1.90;1.38;;;15.50;96.70;;;;;;5037596;28;20049;-71
2022/11/23 12:23:56;;;;;;;2.15;1.60;;;15.60;96.70;;;;;;5061054;28;20048;-71
2022/11/23 12:26:31;;;;;;;2.95;1.48;;;15.70;96.70;;;;;;5064430;28;20051;-71
2022/11/23 12:29:26;;;;;;;1.70;1.25;;;15.90;96.70;;;;;;5062058;28;20500;-70
2022/11/23 12:32:04;;;;;;;2.58;1.40;;;15.90;96.70;;;;;;5063389;28;20119;-71
2022/11/23 12:35:06;;;;;;;2.40;1.20;;;16.00;96.70;;;;;;5061319;28;20044;-71
2022/11/23 12:37:56;;;;;;;1.83;1.27;;;16.10;96.70;;;;;;5059828;28;20059;-71
2022/11/23 12:40:40;;;;;;;3.25;1.20;;;16.10;96.70;;;;;;5062661;28;20059;-71
2022/11/23 12:43:18;;;;;;;3.10;1.10;;;16.10;96.70;;;;;;5062938;28;20056;-71
2022/11/23 12:46:05;;;;;;;4.88;1.95;;;16.20;96.70;;;;;;5061706;28;20044;-71
2022/11/23 12:48:49;;;;;;;2.00;1.48;;;16.30;96.70;;;;;;5057191;28;21403;-70
2022/11/23 12:51:27;;;;;;;3.30;1.85;;;16.30;96.70;;;;;;5058072;28;20644;-71
2022/11/23 12:54:11;;;;;;;1.65;1.45;;;16.40;96.70;;;;;;5060938;28;20051;-70
2022/11/23 12:56:54;;;;;;;3.88;1.95;;;16.40;96.70;;;;;;5056769;28;20582;-70
2022/11/23 12:59:26;;;;;;;2.05;1.55;;;16.50;96.70;;;;;;5060585;28;20048;-70
2022/11/23 13:02:00;;;;;;;2.65;1.60;;;16.50;96.70;;;;;;5062126;28;20064;-70
2022/11/23 13:04:58;;;;;;;2.35;1.42;;;16.50;96.70;;;;;;5060739;28;20055;-70
2022/11/23 13:07:54;;;;;;;3.00;0.95;;;16.50;96.70;;;;;;5062145;28;20443;-70
2022/11/23 13:10:39;;;;;;;4.63;1.50;;;16.50;96.70;;;;;;5035714;28;20048;-69
2022/11/23 13:13:31;;;;;;;3.00;1.45;;;16.30;96.70;;;;;;5061179;28;20049;-70
2022/11/23 13:16:33;;;;;;;4.45;1.52;;;16.30;96.70;;;;;;5059698;28;20118;-70
2022/11/23 13:19:21;;;;;;;1.98;0.90;;;16.40;96.70;;;;;;5062264;28;20040;-70
2022/11/23 13:21:50;;;;;;;1.80;1.20;;;16.40;96.70;;;;;;5061011;28;20040;-70
2022/11/23 13:24:27;;;;;;;4.22;2.22;;;16.40;96.70;;;;;;5060906;28;20044;-70